Racecast

Finnegan Berning

Fort Collins (CO) · 12 · FRONT RANGECO D5A5A · Compare head to head

Athlete rating 110.8 2025 XC season
Best race 114.7 TF
Races 41
Seasons 5 2022 — 2026

RankedNation #44627·CO #964·CO D5A #578·FRONT RANGE #141·Team #23 ?

Speed rating — all races

Cross Country

XC speed rating

2025 XC 107.6

Fort Collins (CO) · Grade 12

Date Meet Event Result Place Rating Difficulty PR/SR Flags
2025-10-18 Adams County Regional Park 5000m 19:15.2 88th · 8th on team 110.8 +0.048 ★CR CSR
2025-10-10 Spring Canyon Park 5000m 18:49.2 19th · 4th on team 111.3 +0.037 ★CR SR CSR RSR
2025-09-26 North Lake Park 5000m 20:19.2 70th · 4th on team 105.1 +0.041 ★CR CSR
2025-09-13 Heritage High School 5000m 19:04.5 54th · 2nd on team 107.1 -0.001 ★CR SR CSR RSR
2025-08-30 Fort Collins High School 5000m 19:30 23rd · 4th on team 106.8 +0.023 ★CR SR CSR RSR
2025-08-23 Spring Canyon Park 5000m 19:54 69th · 5th on team 104.7 +0.037 CR SR CSR RSR

2024 XC 103.3

Fort Collins (CO) · Grade 11

Date Meet Event Result Place Rating Difficulty PR/SR Flags
2024-09-06 Margaret W. Carpenter Recreation Center 5000m 20:11.8 149th · 7th on team 102.6 +0.014 ★CR SR CSR
2024-08-31 Fort Collins High School 5000m 20:21 43rd · 7th on team 103.9 +0.023 CR SR CSR RSR

2023 XC 101.3

Fort Collins (CO) · Grade 10

Date Meet Event Result Place Rating Difficulty PR/SR Flags
2023-09-16 Poudre Learning Center 5000m 18:37.6 15th · 2nd on team 105.2 -0.047 ★PR ★CR R SR CSR RSR
2023-09-09 Heritage High School 5000m 20:22.8 84th · 4th on team 102.1 -0.001 R SR CSR RSR
2023-09-03 Little America Golf Course 5000m 21:56.9 45th · 4th on team 99.9 +0.065 ★CR CSR
2023-08-26 Fort Collins High School 5000m 20:37 38th · 8th on team 100.5 +0.023 CR R SR CSR RSR
2023-08-19 Spring Canyon Park 5000m 21:53 33rd · 8th on team 98.9 +0.037 CR SR CSR RSR

2022 XC 98.5

Fort Collins (CO) · Grade 9

Date Meet Event Result Place Rating Difficulty PR/SR Flags
2022-10-12 Thornton High School 5000m 21:18 133rd · 17th on team 97.9 +0.009 ★CR CSR
2022-09-10 Heritage High School 5000m 20:15 75th · 7th on team 99.4 -0.001 PR CR SR CSR
2022-09-03 Little America Golf Course 5000m 22:06.1 57th · 8th on team 99.5 +0.065 CR R CSR RSR
2022-08-27 Fort Collins High School 5000m 21:29 41st · 12th on team 99.1 +0.023 PR CR R SR CSR RSR
2022-08-20 Spring Canyon Park 5000m 22:09 57th · 12th on team 96.7 +0.037 PR CR R SR CSR RSR

Track & Field

TF speed rating

2026 TF

Fort Collins (CO) · Grade 12

Date Meet Event Result Place Rating Difficulty PR/SR Flags
2026-05-09 Teddy's Last Chance 400m 50.74 11th · 1st on team -0.014 ★PR SR
2026-04-29 Longs Peak and Northern Conference Championships 400m 51.67 13th · 3rd on team -0.014
2026-04-23 Stutler Twilight 400m 51.35 13th · 1st on team -0.014
2026-04-10 Pomona Invite 400m 52.1 37th · 2nd on team -0.011
2026-04-10 The Pomona Invitational 400m 52.1 37th · 2nd on team -0.011
2026-04-08 Randy Yaussi PSD Meet 400m 52.04 7th · 3rd on team -0.012
2026-04-08 Randy Yaussi PSD Meet 200m 23.88 6th · 1st on team -0.012 ★PR SR
2026-04-04 Altitude Running Invitational 400m 51.26 10th · 2nd on team -0.012 PR SR
2026-03-27 Roosevelt Power Meet Invitational 400m 52.01 6th · 2nd on team -0.014 SR
2026-03-21 Runners Roost of Fort Collins Invitational 400m 53.2 15th · 3rd on team -0.012
2026-03-07 John Martin Early Bird Invite 400m 52.57 5th · 2nd on team -0.011 SR
2026-03-07 John Martin Early Bird Invite 200m 24.33 24th · 8th on team -0.011 PR SR

2025 TF 114.7

Fort Collins (CO) · Grade 11

Date Meet Event Result Place Rating Difficulty PR/SR Flags
2025-04-30 Northern Conference League Meet 400m 52.44 14th · 5th on team -0.008 PR SR
2025-04-30 Northern Conference League Meet 400m 51.53 9th · 3rd on team -0.008 PR SR
2025-04-19 Randall Hess Roughrider Invitational 800m 2:14.15 49th · 3rd on team 114.7 -0.014 ★PR ★R SR RSR
2025-04-05 Altitude Running Invite 400m 53.89 16th · 2nd on team -0.012 PR SR
2025-03-15 Murray Kula Invitational 400m 54.6 16th · 2nd on team -0.008 SR

2024 TF

Fort Collins (CO) · Grade 10

Date Meet Event Result Place Rating Difficulty PR/SR Flags
2024-05-03 Front Range League Championships 400m 54.72 35th · 4th on team -0.009 SR
2024-03-30 Jack Christensen Invitational HS 400m 58.06 6th · 1st on team -0.013 SR

2023 TF

Fort Collins (CO) · Grade 9

Date Meet Event Result Place Rating Difficulty PR/SR Flags
2023-04-29 Stutler Twilight 400m 54.49 28th · 3rd on team -0.014 PR SR
2023-04-01 Altitude Running Invitational 400m 56.31 36th · 3rd on team -0.009 PR SR
2023-04-01 Altitude Running Invitational 200m 25.67 65th · 3rd on team -0.009 PR SR
2023-03-10 Max Marr Invitational 400m 56.82 20th · 4th on team -0.007 PR SR